Time;durP1;ratioP1;P1;durP2;ratioP2;P2;SDS_P1;SDS_P2;PMS_P1;PMS_P2;Temp;Humidity;BMP_temperature;BMP_pressure;BME280_temperature;BME280_humidity;BME280_pressure;Samples;Min_cycle;Max_cycle;Signal;HPM_P1;HPM_P2
2023/01/20 00:01:23;;;;;;;;;;;15.40;59.30;;;;;;10335263;28;88378;-60
2023/01/20 00:06:28;;;;;;;;;;;15.30;59.30;;;;;;10334649;28;88196;-61
2023/01/20 00:11:30;;;;;;;;;;;15.40;59.30;;;;;;10334922;28;89714;-60
2023/01/20 00:16:32;;;;;;;;;;;15.30;59.20;;;;;;10334088;28;89139;-61
2023/01/20 00:21:34;;;;;;;;;;;15.30;59.20;;;;;;10332022;28;89564;-60
2023/01/20 00:26:35;;;;;;;;;;;15.30;59.30;;;;;;10334681;28;88713;-60
2023/01/20 00:31:37;;;;;;;;;;;15.20;59.20;;;;;;10333010;28;89575;-61
2023/01/20 00:36:39;;;;;;;;;;;15.20;59.30;;;;;;10336436;28;88879;-61
2023/01/20 00:41:41;;;;;;;;;;;15.20;59.40;;;;;;10341145;28;89034;-60
2023/01/20 00:46:43;;;;;;;;;;;15.10;59.30;;;;;;10341195;28;89099;-60
2023/01/20 00:51:45;;;;;;;;;;;15.10;60.20;;;;;;10338499;28;89211;-61
2023/01/20 00:56:47;;;;;;;;;;;15.10;59.30;;;;;;10339210;28;88965;-61
2023/01/20 01:01:49;;;;;;;;;;;15.20;59.20;;;;;;10338351;28;90109;-60
2023/01/20 01:06:51;;;;;;;;;;;15.30;59.10;;;;;;10340737;28;90407;-61
2023/01/20 01:11:53;;;;;;;;;;;15.30;58.80;;;;;;10339402;28;90144;-61
2023/01/20 01:16:55;;;;;;;;;;;15.30;58.80;;;;;;10338802;28;90644;-60
2023/01/20 01:21:58;;;;;;;;;;;15.30;58.70;;;;;;10339298;28;90335;-61
2023/01/20 01:26:59;;;;;;;;;;;15.30;58.60;;;;;;10339624;28;89039;-60
2023/01/20 01:32:01;;;;;;;;;;;15.30;58.60;;;;;;10339577;28;89135;-61
2023/01/20 01:37:03;;;;;;;;;;;15.30;58.60;;;;;;10339670;28;90017;-61
2023/01/20 01:42:11;;;;;;;;;;;15.20;58.60;;;;;;10339240;28;90023;-61
2023/01/20 01:47:13;;;;;;;;;;;15.20;58.80;;;;;;10338485;28;89164;-60
2023/01/20 01:52:17;;;;;;;;;;;15.20;58.80;;;;;;10337047;28;88707;-60
2023/01/20 01:57:19;;;;;;;;;;;15.10;58.70;;;;;;10337953;28;88801;-61
2023/01/20 02:02:21;;;;;;;;;;;15.10;58.70;;;;;;10750207;22;89037;-59
2023/01/20 02:07:25;;;;;;;;;;;15.10;58.70;;;;;;10378073;28;89207;-61
2023/01/20 02:12:27;;;;;;;;;;;15.00;58.70;;;;;;10377970;28;90392;-61
2023/01/20 02:17:40;;;;;;;;;;;15.00;58.80;;;;;;10380022;28;89664;-61
2023/01/20 02:22:48;;;;;;;;;;;15.00;58.90;;;;;;10378926;28;90112;-61
2023/01/20 02:28:02;;;;;;;;;;;15.00;58.90;;;;;;10381058;28;88330;-61
2023/01/20 02:33:11;;;;;;;;;;;15.10;58.80;;;;;;10379747;28;89259;-61
2023/01/20 02:38:19;;;;;;;;;;;15.10;58.70;;;;;;10378618;28;89045;-60
2023/01/20 02:43:21;;;;;;;;;;;15.20;58.50;;;;;;10361050;28;91100;-61
2023/01/20 02:48:23;;;;;;;;;;;15.20;58.50;;;;;;10378762;28;87953;-61
2023/01/20 02:53:28;;;;;;;;;;;15.20;58.40;;;;;;10378321;28;89985;-61
2023/01/20 02:58:36;;;;;;;;;;;15.20;58.30;;;;;;10377026;28;89566;-62
2023/01/20 03:03:40;;;;;;;;;;;15.20;58.30;;;;;;10376191;28;89783;-61
2023/01/20 03:08:44;;;;;;;;;;;15.10;58.30;;;;;;10377593;28;89167;-62
2023/01/20 03:13:51;;;;;;;;;;;15.10;58.40;;;;;;10378977;28;88754;-61
2023/01/20 03:18:53;;;;;;;;;;;15.10;58.40;;;;;;10378485;28;88964;-61
2023/01/20 03:23:58;;;;;;;;;;;15.00;58.40;;;;;;10377436;28;89088;-60
2023/01/20 03:29:03;;;;;;;;;;;15.00;58.40;;;;;;10376801;28;88885;-61
2023/01/20 03:34:09;;;;;;;;;;;15.00;58.40;;;;;;10376292;28;91561;-60
2023/01/20 03:39:11;;;;;;;;;;;14.90;58.40;;;;;;10377846;28;89310;-61
2023/01/20 03:44:18;;;;;;;;;;;14.90;58.40;;;;;;10376807;28;89984;-61
2023/01/20 03:49:29;;;;;;;;;;;14.90;58.50;;;;;;10378197;28;89117;-61
2023/01/20 03:54:33;;;;;;;;;;;14.90;58.60;;;;;;10376543;28;89173;-62
2023/01/20 03:59:37;;;;;;;;;;;15.00;58.60;;;;;;10377890;28;90143;-61
2023/01/20 04:04:40;;;;;;;;;;;15.00;58.50;;;;;;10376307;28;89025;-61
2023/01/20 04:09:44;;;;;;;;;;;15.10;58.40;;;;;;10376985;28;89334;-62
2023/01/20 04:14:46;;;;;;;;;;;15.20;58.30;;;;;;10382938;28;89084;-61
2023/01/20 04:19:48;;;;;;;;;;;15.20;58.20;;;;;;10383973;28;90002;-60
2023/01/20 04:24:50;;;;;;;;;;;15.20;58.10;;;;;;10382221;28;89303;-61
2023/01/20 04:29:51;;;;;;;;;;;15.20;58.10;;;;;;10384654;28;89376;-61
2023/01/20 04:34:53;;;;;;;;;;;15.10;58.10;;;;;;10383336;28;89520;-61
2023/01/20 04:39:55;;;;;;;;;;;15.10;58.00;;;;;;10383897;28;89403;-61
2023/01/20 04:44:56;;;;;;;;;;;15.10;58.00;;;;;;10382294;28;89261;-61
2023/01/20 06:07:21;;;;;;;;;;;15.60;57.40;;;;;;10297166;28;88685;-59
2023/01/20 06:12:23;;;;;;;;;;;15.70;57.10;;;;;;10290682;28;89884;-59
2023/01/20 06:17:25;;;;;;;;;;;15.80;57.00;;;;;;10256347;28;90030;-59
2023/01/20 06:22:26;;;;;;;;;;;15.90;57.00;;;;;;10255949;28;90082;-59
2023/01/20 06:27:28;;;;;;;;;;;15.90;56.80;;;;;;10255400;28;88260;-59
2023/01/20 06:32:30;;;;;;;;;;;16.10;56.80;;;;;;10255249;28;90054;-58
2023/01/20 06:37:32;;;;;;;;;;;16.20;56.70;;;;;;10255556;28;90155;-58
2023/01/20 06:42:33;;;;;;;;;;;16.20;56.60;;;;;;10254914;28;90885;-59
2023/01/20 06:47:35;;;;;;;;;;;16.20;56.50;;;;;;10253995;28;91669;-59
2023/01/20 06:52:36;;;;;;;;;;;16.20;56.50;;;;;;10254944;28;89750;-58
2023/01/20 06:57:38;;;;;;;;;;;16.10;56.60;;;;;;10254998;28;89339;-60
2023/01/20 07:02:40;;;;;;;;;;;16.10;56.80;;;;;;10260771;28;89845;-59
2023/01/20 07:07:45;;;;;;;;;;;16.10;57.10;;;;;;10336815;28;89434;-59
2023/01/20 07:12:46;;;;;;;;;;;16.10;57.80;;;;;;10336330;28;89985;-59
2023/01/20 07:17:48;;;;;;;;;;;16.20;58.10;;;;;;10336255;28;87603;-59
2023/01/20 07:22:50;;;;;;;;;;;16.30;58.30;;;;;;10336634;28;89957;-58
2023/01/20 07:27:52;;;;;;;;;;;16.50;58.60;;;;;;10332281;28;88899;-59
2023/01/20 07:32:54;;;;;;;;;;;16.60;57.90;;;;;;10335458;28;90442;-59
2023/01/20 07:37:55;;;;;;;;;;;16.60;57.50;;;;;;10335995;28;90121;-59
2023/01/20 07:42:57;;;;;;;;;;;16.50;57.30;;;;;;10335597;28;89111;-59
2023/01/20 07:48:00;;;;;;;;;;;16.40;57.30;;;;;;10338818;28;89085;-60
2023/01/20 07:53:02;;;;;;;;;;;16.30;57.30;;;;;;10343220;28;89146;-59
2023/01/20 07:58:04;;;;;;;;;;;16.20;57.40;;;;;;10342208;28;89824;-59
2023/01/20 08:03:05;;;;;;;;;;;16.10;57.50;;;;;;10341007;28;88456;-59
2023/01/20 08:08:07;;;;;;;;;;;16.00;57.60;;;;;;10343606;28;88364;-59
2023/01/20 08:13:10;;;;;;;;;;;16.00;57.80;;;;;;10342186;28;89867;-59
2023/01/20 08:18:11;;;;;;;;;;;15.90;57.80;;;;;;10341239;28;88599;-59
2023/01/20 08:23:13;;;;;;;;;;;15.80;57.90;;;;;;10339607;28;90639;-60
2023/01/20 08:28:15;;;;;;;;;;;15.70;58.00;;;;;;10341409;28;89944;-59
2023/01/20 08:33:16;;;;;;;;;;;15.60;58.20;;;;;;10341563;28;89628;-59
2023/01/20 08:38:18;;;;;;;;;;;15.60;58.40;;;;;;10341250;28;89473;-59
2023/01/20 08:43:20;;;;;;;;;;;15.50;58.40;;;;;;10340854;28;88976;-59
2023/01/20 08:48:21;;;;;;;;;;;15.50;58.30;;;;;;10341424;28;88848;-59
2023/01/20 08:53:23;;;;;;;;;;;15.40;58.40;;;;;;10334115;28;93282;-60
2023/01/20 08:58:26;;;;;;;;;;;15.30;58.30;;;;;;10336815;28;93648;-60
2023/01/20 09:03:28;;;;;;;;;;;15.30;58.50;;;;;;10335384;28;93660;-60
2023/01/20 09:08:31;;;;;;;;;;;15.20;58.50;;;;;;10334320;28;93329;-60
2023/01/20 09:13:33;;;;;;;;;;;15.20;58.50;;;;;;10333225;28;96575;-60
2023/01/20 09:18:34;;;;;;;;;;;15.10;58.70;;;;;;10335443;28;93473;-60
2023/01/20 09:23:37;;;;;;;;;;;15.10;58.70;;;;;;10335186;28;94547;-60
2023/01/20 09:28:41;;;;;;;;;;;15.00;59.50;;;;;;10335188;28;93208;-60
2023/01/20 09:33:42;;;;;;;;;;;15.00;58.50;;;;;;10334800;28;93547;-60
2023/01/20 09:44:23;;;;;;;;;;;14.90;58.30;;;;;;10333987;28;93976;-60
2023/01/20 09:54:57;;;;;;;;;;;14.80;58.30;;;;;;10333402;28;93584;-60
2023/01/20 10:00:06;;;;;;;;;;;14.80;58.50;;;;;;10332521;28;93450;-61
2023/01/20 10:05:12;;;;;;;;;;;14.80;58.70;;;;;;10331100;28;96780;-60
2023/01/20 10:10:16;;;;;;;;;;;14.80;58.80;;;;;;10332619;28;93463;-60
2023/01/20 10:15:24;;;;;;;;;;;14.70;58.80;;;;;;10332094;28;93474;-60
2023/01/20 10:20:30;;;;;;;;;;;14.70;58.90;;;;;;10332652;28;93520;-60
2023/01/20 10:25:32;;;;;;;;;;;14.70;59.00;;;;;;10333752;28;93266;-60
2023/01/20 10:30:34;;;;;;;;;;;14.70;59.00;;;;;;10332503;28;93340;-60
2023/01/20 10:35:38;;;;;;;;;;;14.70;58.90;;;;;;10333328;28;93487;-60
2023/01/20 10:40:45;;;;;;;;;;;14.70;59.00;;;;;;10333840;28;92466;-60
2023/01/20 10:46:16;;;;;;;;;;;14.70;59.00;;;;;;10332865;28;93618;-60
2023/01/20 10:51:21;;;;;;;;;;;14.60;59.00;;;;;;10318911;28;93767;-59
2023/01/20 10:56:34;;;;;;;;;;;14.60;59.00;;;;;;10329670;28;96866;-60
2023/01/20 11:01:36;;;;;;;;;;;14.60;58.90;;;;;;10332617;28;93657;-60
2023/01/20 11:06:38;;;;;;;;;;;14.60;59.00;;;;;;10331346;28;92641;-60
2023/01/20 11:11:40;;;;;;;;;;;14.60;59.00;;;;;;10331798;28;93329;-60
2023/01/20 11:16:45;;;;;;;;;;;14.60;59.00;;;;;;10331387;28;94429;-60
2023/01/20 11:21:47;;;;;;;;;;;14.60;59.10;;;;;;10330228;28;93218;-60
2023/01/20 11:26:49;;;;;;;;;;;14.50;59.00;;;;;;10330458;28;94531;-60
2023/01/20 11:31:52;;;;;;;;;;;14.50;59.20;;;;;;10330635;28;93740;-60
2023/01/20 11:37:03;;;;;;;;;;;14.50;59.20;;;;;;10312791;28;94161;-61
2023/01/20 11:42:09;;;;;;;;;;;14.50;59.00;;;;;;10330794;28;93997;-60
2023/01/20 11:47:30;;;;;;;;;;;14.50;59.20;;;;;;10328201;28;95849;-60
2023/01/20 11:52:36;;;;;;;;;;;14.50;59.20;;;;;;10330630;28;93846;-60
2023/01/20 11:57:50;;;;;;;;;;;14.50;59.20;;;;;;10329514;28;94335;-61
2023/01/20 12:03:09;;;;;;;;;;;14.50;59.20;;;;;;10330027;28;93916;-60
2023/01/20 12:08:22;;;;;;;;;;;14.50;59.20;;;;;;10329401;28;93249;-60
2023/01/20 12:13:29;;;;;;;;;;;14.40;59.20;;;;;;10329773;28;94457;-60
2023/01/20 12:18:46;;;;;;;;;;;14.40;59.30;;;;;;10328430;28;93141;-60
2023/01/20 12:24:08;;;;;;;;;;;14.40;59.20;;;;;;10331037;28;93704;-60
2023/01/20 12:29:10;;;;;;;;;;;14.40;59.30;;;;;;10330044;28;92935;-60
2023/01/20 12:34:13;;;;;;;;;;;14.40;59.20;;;;;;10333477;28;94356;-60
2023/01/20 12:39:30;;;;;;;;;;;14.40;59.40;;;;;;10334253;28;96836;-60
2023/01/20 12:44:40;;;;;;;;;;;14.40;59.40;;;;;;10336546;28;93293;-60
2023/01/20 12:49:49;;;;;;;;;;;14.40;59.40;;;;;;10335984;28;93430;-60
2023/01/20 12:54:57;;;;;;;;;;;14.40;59.40;;;;;;10335837;28;94672;-60
2023/01/20 13:00:14;;;;;;;;;;;14.40;59.30;;;;;;10336182;28;93271;-59
2023/01/20 13:05:34;;;;;;;;;;;14.40;59.30;;;;;;10335233;28;93492;-60
2023/01/20 13:10:39;;;;;;;;;;;14.40;59.30;;;;;;10335406;28;93445;-60
2023/01/20 13:15:43;;;;;;;;;;;14.40;59.30;;;;;;10336267;28;92702;-60
2023/01/20 13:20:45;;;;;;;;;;;14.40;59.30;;;;;;10335121;28;92888;-60
2023/01/20 13:25:47;;;;;;;;;;;14.40;59.30;;;;;;10335587;28;94419;-60
2023/01/20 13:30:52;;;;;;;;;;;14.30;59.20;;;;;;10330944;28;95712;-59
2023/01/20 13:35:54;;;;;;;;;;;14.30;59.40;;;;;;10341519;28;93424;-60
2023/01/20 13:41:02;;;;;;;;;;;14.40;59.40;;;;;;10334037;28;93316;-60
2023/01/20 13:46:03;;;;;;;;;;;14.50;59.40;;;;;;10333679;28;93363;-60
2023/01/20 13:51:25;;;;;;;;;;;14.80;59.10;;;;;;10334832;28;94315;-60
2023/01/20 13:56:28;;;;;;;;;;;15.10;58.70;;;;;;10334714;28;94491;-60
2023/01/20 14:01:29;;;;;;;;;;;15.40;58.10;;;;;;10333973;28;93355;-61
2023/01/20 14:06:32;;;;;;;;;;;15.70;57.60;;;;;;10334335;28;93095;-60
2023/01/20 14:11:34;;;;;;;;;;;15.90;57.20;;;;;;10334297;28;93308;-60
2023/01/20 14:16:37;;;;;;;;;;;16.10;56.70;;;;;;10334137;28;93427;-60
2023/01/20 14:21:39;;;;;;;;;;;16.40;56.50;;;;;;10331679;28;96846;-60
2023/01/20 14:26:41;;;;;;;;;;;16.50;56.10;;;;;;10333347;28;94227;-60
2023/01/20 14:31:43;;;;;;;;;;;16.70;55.90;;;;;;10332466;28;94561;-60
2023/01/20 14:36:46;;;;;;;;;;;16.80;55.50;;;;;;10347927;28;94286;-60
2023/01/20 14:41:58;;;;;;;;;;;16.90;55.40;;;;;;10333040;28;94343;-59
2023/01/20 14:47:01;;;;;;;;;;;16.90;55.40;;;;;;10332381;28;94502;-60
2023/01/20 14:52:03;;;;;;;;;;;16.90;55.40;;;;;;10330967;28;93331;-60
2023/01/20 14:57:21;;;;;;;;;;;17.00;55.30;;;;;;10332917;28;92259;-60
2023/01/20 15:02:28;;;;;;;;;;;17.10;55.00;;;;;;10329118;28;93427;-60
2023/01/20 15:07:29;;;;;;;;;;;17.20;55.00;;;;;;10332790;28;94688;-60
2023/01/20 15:12:31;;;;;;;;;;;17.20;55.30;;;;;;10327422;28;97050;-60
2023/01/20 15:17:33;;;;;;;;;;;17.30;55.70;;;;;;10332440;28;93218;-60
2023/01/20 15:22:34;;;;;;;;;;;17.30;57.30;;;;;;10331442;28;93510;-61
2023/01/20 15:27:36;;;;;;;;;;;17.50;57.00;;;;;;10331922;28;93916;-60
2023/01/20 15:32:38;;;;;;;;;;;17.60;56.40;;;;;;10329493;28;93786;-60
2023/01/20 15:37:41;;;;;;;;;;;17.70;55.90;;;;;;10331004;28;93432;-60
2023/01/20 15:42:43;;;;;;;;;;;17.70;55.90;;;;;;10329660;28;94482;-60
2023/01/20 15:47:45;;;;;;;;;;;17.60;56.20;;;;;;10331722;28;93045;-60
2023/01/20 15:52:47;;;;;;;;;;;17.50;56.00;;;;;;10330063;28;93474;-61
2023/01/20 15:57:50;;;;;;;;;;;17.50;56.50;;;;;;10328532;28;92872;-61
2023/01/20 16:02:52;;;;;;;;;;;17.50;56.50;;;;;;10326839;28;95704;-61
2023/01/20 16:07:54;;;;;;;;;;;17.60;56.40;;;;;;10331510;28;93543;-61
2023/01/20 16:12:56;;;;;;;;;;;17.60;56.30;;;;;;10337133;28;92840;-60
2023/01/20 16:17:57;;;;;;;;;;;17.70;56.00;;;;;;10337770;28;94465;-60
2023/01/20 16:22:59;;;;;;;;;;;17.80;55.90;;;;;;10335963;28;93496;-61
2023/01/20 16:28:04;;;;;;;;;;;17.80;55.80;;;;;;10335066;28;97267;-60
2023/01/20 16:33:14;;;;;;;;;;;17.80;55.70;;;;;;10337537;28;94732;-61
2023/01/20 16:38:16;;;;;;;;;;;17.70;55.70;;;;;;10337969;28;92551;-60
2023/01/20 16:43:19;;;;;;;;;;;17.70;55.70;;;;;;10334937;28;93234;-61
2023/01/20 16:48:21;;;;;;;;;;;17.80;55.70;;;;;;10335318;28;93487;-60
2023/01/20 16:53:23;;;;;;;;;;;17.90;56.60;;;;;;10334231;28;96837;-61
2023/01/20 16:58:25;;;;;;;;;;;17.90;55.40;;;;;;10336387;28;92987;-60
2023/01/20 17:03:26;;;;;;;;;;;18.00;55.20;;;;;;10334191;28;92523;-61
2023/01/20 17:08:28;;;;;;;;;;;18.00;55.20;;;;;;10334450;28;93629;-60
2023/01/20 17:13:30;;;;;;;;;;;17.90;55.10;;;;;;10333948;28;93112;-60
2023/01/20 17:18:32;;;;;;;;;;;17.90;55.20;;;;;;10334202;28;93514;-60
2023/01/20 17:23:33;;;;;;;;;;;17.90;55.10;;;;;;10334756;28;92512;-60
2023/01/20 17:28:35;;;;;;;;;;;18.00;55.00;;;;;;10335802;28;94197;-61
2023/01/20 17:33:37;;;;;;;;;;;18.10;55.00;;;;;;10334884;28;93799;-60
2023/01/20 17:38:39;;;;;;;;;;;18.10;54.90;;;;;;10334069;28;93324;-61
2023/01/20 17:43:45;;;;;;;;;;;18.00;54.80;;;;;;10331031;28;95848;-60
2023/01/20 17:48:47;;;;;;;;;;;18.00;54.80;;;;;;10332386;28;93594;-61
2023/01/20 17:53:49;;;;;;;;;;;18.00;54.80;;;;;;10332017;28;93253;-60
2023/01/20 17:58:51;;;;;;;;;;;18.00;55.70;;;;;;10314623;28;94162;-61
2023/01/20 18:03:54;;;;;;;;;;;18.10;55.70;;;;;;10331141;28;93351;-60
2023/01/20 18:08:57;;;;;;;;;;;18.30;55.50;;;;;;10333647;28;93443;-60
2023/01/20 18:13:59;;;;;;;;;;;18.30;55.60;;;;;;10332735;28;93626;-60
2023/01/20 18:19:01;;;;;;;;;;;18.30;55.00;;;;;;10333890;28;93663;-60
2023/01/20 18:24:04;;;;;;;;;;;18.30;55.00;;;;;;10332919;28;93566;-60
2023/01/20 18:29:12;;;;;;;;;;;18.30;55.40;;;;;;10332473;28;93349;-60
2023/01/20 18:34:14;;;;;;;;;;;18.30;55.80;;;;;;10330061;28;97213;-60
2023/01/20 18:39:20;;;;;;;;;;;18.30;56.00;;;;;;10330204;28;93404;-60
2023/01/20 18:44:22;;;;;;;;;;;18.40;56.00;;;;;;10330741;28;93203;-60
2023/01/20 18:49:24;;;;;;;;;;;18.40;56.00;;;;;;10331596;28;94621;-61
2023/01/20 18:54:28;;;;;;;;;;;18.40;56.10;;;;;;10332264;28;94354;-60
2023/01/20 18:59:30;;;;;;;;;;;18.30;56.30;;;;;;10331371;28;93421;-61
2023/01/20 19:04:34;;;;;;;;;;;18.20;56.70;;;;;;10329803;28;94456;-60
2023/01/20 19:09:35;;;;;;;;;;;18.20;56.90;;;;;;10363570;28;93449;-60
2023/01/20 19:14:39;;;;;;;;;;;18.20;56.50;;;;;;10329851;28;113995;-60
2023/01/20 19:19:44;;;;;;;;;;;18.10;56.10;;;;;;10330847;28;94414;-60
2023/01/20 19:24:46;;;;;;;;;;;18.10;56.20;;;;;;10325998;28;95752;-60
2023/01/20 19:29:48;;;;;;;;;;;18.10;58.30;;;;;;10329814;28;94490;-61
2023/01/20 19:34:50;;;;;;;;;;;18.10;57.80;;;;;;10330327;28;92794;-60
2023/01/20 19:39:51;;;;;;;;;;;18.10;57.10;;;;;;10330268;28;93991;-60
2023/01/20 19:44:53;;;;;;;;;;;18.10;57.10;;;;;;10329354;28;94426;-60
2023/01/20 19:49:55;;;;;;;;;;;18.00;57.20;;;;;;10329502;28;93843;-61
2023/01/20 19:54:57;;;;;;;;;;;18.00;57.40;;;;;;10329612;28;93094;-60
2023/01/20 19:59:58;;;;;;;;;;;17.90;58.10;;;;;;10330074;28;92488;-62
2023/01/20 20:05:00;;;;;;;;;;;18.00;58.10;;;;;;10327004;28;92650;-60
2023/01/20 20:10:03;;;;;;;;;;;18.00;58.00;;;;;;10364335;28;93416;-60
2023/01/20 20:15:05;;;;;;;;;;;18.10;58.60;;;;;;10367198;28;95597;-60
2023/01/20 20:20:07;;;;;;;;;;;18.20;58.30;;;;;;10370679;28;93396;-61
2023/01/20 20:25:10;;;;;;;;;;;18.30;57.40;;;;;;10370359;28;93800;-60
2023/01/20 20:30:12;;;;;;;;;;;18.20;57.30;;;;;;10371197;28;93676;-60
2023/01/20 20:35:13;;;;;;;;;;;18.30;57.60;;;;;;10368386;28;93620;-60
2023/01/20 20:40:15;;;;;;;;;;;18.30;57.80;;;;;;10370558;28;93602;-60
2023/01/20 20:45:18;;;;;;;;;;;18.40;57.90;;;;;;10370279;28;94355;-60
2023/01/20 20:50:20;;;;;;;;;;;18.40;58.20;;;;;;10370304;28;92037;-60
2023/01/20 20:55:21;;;;;;;;;;;18.50;58.40;;;;;;10373188;28;94226;-60
2023/01/20 21:00:26;;;;;;;;;;;18.40;59.20;;;;;;10377085;28;94017;-60
2023/01/20 21:05:28;;;;;;;;;;;18.60;59.50;;;;;;10373665;28;95688;-59
2023/01/20 21:10:30;;;;;;;;;;;18.70;58.20;;;;;;10376735;28;93639;-60
2023/01/20 21:15:33;;;;;;;;;;;18.50;58.70;;;;;;10377586;28;94030;-61
2023/01/20 21:20:34;;;;;;;;;;;18.40;59.20;;;;;;10374626;28;93464;-60
2023/01/20 21:25:36;;;;;;;;;;;18.40;61.00;;;;;;10373810;28;93485;-60
2023/01/20 21:30:38;;;;;;;;;;;18.40;59.60;;;;;;10375519;28;94413;-60
2023/01/20 21:35:40;;;;;;;;;;;18.20;59.60;;;;;;10375363;28;93486;-60
2023/01/20 21:40:58;;;;;;;;;;;18.20;60.20;;;;;;10375408;28;93580;-60
2023/01/20 21:46:00;;;;;;;;;;;18.00;60.40;;;;;;10375474;28;93446;-60
2023/01/20 21:56:22;;;;;;;;;;;17.70;60.70;;;;;;10372421;28;95904;-59
2023/01/20 22:01:24;;;;;;;;;;;17.60;61.00;;;;;;10355415;28;93346;-60
2023/01/20 22:06:26;;;;;;;;;;;17.50;61.20;;;;;;10373120;28;94360;-59
2023/01/20 22:11:27;;;;;;;;;;;17.40;61.20;;;;;;10375344;28;94430;-59
2023/01/20 22:16:30;;;;;;;;;;;17.30;61.30;;;;;;10373104;28;94505;-60
2023/01/20 22:21:32;;;;;;;;;;;17.20;61.20;;;;;;10375119;28;93745;-60
2023/01/20 22:26:34;;;;;;;;;;;17.10;61.10;;;;;;10375041;28;93465;-60
2023/01/20 22:31:36;;;;;;;;;;;17.00;62.10;;;;;;10374699;28;94171;-60
2023/01/20 22:36:38;;;;;;;;;;;16.90;61.10;;;;;;10374058;28;93077;-60
2023/01/20 22:41:40;;;;;;;;;;;16.80;61.00;;;;;;10372774;28;94262;-59
2023/01/20 22:46:42;;;;;;;;;;;16.70;60.90;;;;;;10369390;28;95410;-59
2023/01/20 22:51:43;;;;;;;;;;;16.70;61.00;;;;;;10373839;28;94418;-60
2023/01/20 22:56:45;;;;;;;;;;;16.60;60.90;;;;;;10370971;28;93658;-60
2023/01/20 23:01:47;;;;;;;;;;;16.50;60.90;;;;;;10366180;28;93893;-60
2023/01/20 23:06:49;;;;;;;;;;;16.50;60.90;;;;;;10371236;28;93498;-60
2023/01/20 23:11:51;;;;;;;;;;;16.40;60.90;;;;;;10373322;28;92463;-60
2023/01/20 23:16:53;;;;;;;;;;;16.30;61.00;;;;;;10372016;28;94519;-60
2023/01/20 23:21:55;;;;;;;;;;;16.30;61.00;;;;;;10370961;28;92947;-60
2023/01/20 23:26:56;;;;;;;;;;;16.20;61.00;;;;;;10372676;28;93992;-60
2023/01/20 23:31:58;;;;;;;;;;;16.10;61.00;;;;;;10373143;28;94181;-60
2023/01/20 23:37:00;;;;;;;;;;;16.10;61.00;;;;;;10369268;28;97091;-60
2023/01/20 23:42:01;;;;;;;;;;;16.10;60.90;;;;;;10372399;28;93706;-60
2023/01/20 23:47:06;;;;;;;;;;;16.00;60.80;;;;;;10371397;28;94621;-60
2023/01/20 23:52:08;;;;;;;;;;;16.00;60.90;;;;;;10372031;28;94109;-61
2023/01/20 23:57:09;;;;;;;;;;;15.90;60.80;;;;;;10370408;28;93417;-60
